Time;durP1;ratioP1;P1;durP2;ratioP2;P2;SDS_P1;SDS_P2;PMS_P1;PMS_P2;Temp;Humidity;BMP_temperature;BMP_pressure;BME280_temperature;BME280_humidity;BME280_pressure;Samples;Min_cycle;Max_cycle;Signal;HPM_P1;HPM_P2
2022/10/30 00:00:51;;;;;;;;;10.20;10.20;;;;;;;;5188815;28;8841;-76
2022/10/30 00:03:23;;;;;;;;;5.80;5.80;;;;;;;;5205208;28;8751;-76
2022/10/30 00:05:54;;;;;;;;;10.00;10.00;;;;;;;;5203261;28;8822;-76
2022/10/30 00:08:25;;;;;;;;;12.20;12.20;;;;;;;;5205146;28;8778;-76
2022/10/30 00:10:56;;;;;;;;;9.60;7.60;;;;;;;;5208515;27;8857;-75
2022/10/30 00:13:27;;;;;;;;;5.20;5.20;;;;;;;;5184385;28;8770;-76
2022/10/30 00:15:58;;;;;;;;;7.20;7.00;;;;;;;;5184348;28;8864;-76
2022/10/30 00:18:30;;;;;;;;;9.20;9.20;;;;;;;;5184182;28;8824;-74
2022/10/30 00:21:05;;;;;;;;;6.20;6.20;;;;;;;;5200851;28;8927;-75
2022/10/30 00:23:37;;;;;;;;;11.20;11.20;;;;;;;;5184697;28;8796;-75
2022/10/30 00:26:08;;;;;;;;;8.00;8.00;;;;;;;;5183586;28;8830;-74
2022/10/30 00:28:39;;;;;;;;;12.20;12.00;;;;;;;;5186704;28;8786;-74
2022/10/30 00:31:11;;;;;;;;;8.80;8.80;;;;;;;;5221311;28;8818;-73
2022/10/30 00:33:42;;;;;;;;;9.60;9.60;;;;;;;;5204805;28;9540;-73
2022/10/30 00:36:13;;;;;;;;;8.00;8.00;;;;;;;;5204740;28;8787;-73
2022/10/30 00:39:04;;;;;;;;;5.80;5.80;;;;;;;;5206995;28;8807;-73
2022/10/30 00:41:38;;;;;;;;;6.80;6.80;;;;;;;;5188745;28;8909;-74
2022/10/30 00:44:27;;;;;;;;;5.00;5.00;;;;;;;;5203954;28;8793;-73
2022/10/30 00:47:20;;;;;;;;;6.20;6.20;;;;;;;;5200886;28;8797;-73
2022/10/30 00:50:04;;;;;;;;;7.20;6.80;;;;;;;;5185276;28;8783;-73
2022/10/30 00:52:53;;;;;;;;;6.20;5.80;;;;;;;;5207050;28;8863;-73
2022/10/30 00:55:30;;;;;;;;;5.00;5.00;;;;;;;;5206914;28;8779;-72
2022/10/30 00:58:06;;;;;;;;;8.40;8.40;;;;;;;;5189965;28;8830;-72
2022/10/30 01:00:39;;;;;;;;;9.20;9.20;;;;;;;;5224639;28;8921;-72
2022/10/30 01:03:12;;;;;;;;;5.40;5.40;;;;;;;;5207875;28;9541;-72
2022/10/30 01:05:46;;;;;;;;;7.00;7.00;;;;;;;;5189704;28;8819;-73
2022/10/30 01:08:17;;;;;;;;;0.80;0.80;;;;;;;;5218523;28;8809;-73
2022/10/30 01:10:49;;;;;;;;;8.00;8.00;;;;;;;;5187504;28;8920;-73
2022/10/30 01:13:22;;;;;;;;;5.20;5.20;;;;;;;;5187443;28;8786;-73
2022/10/30 01:16:11;;;;;;;;;5.00;5.00;;;;;;;;5187323;28;8819;-73
2022/10/30 01:18:49;;;;;;;;;3.00;3.00;;;;;;;;5187161;28;8844;-73
2022/10/30 01:21:39;;;;;;;;;6.20;6.20;;;;;;;;5189771;28;8796;-73
2022/10/30 01:24:13;;;;;;;;;5.80;5.80;;;;;;;;5219119;28;8787;-73
2022/10/30 01:26:48;;;;;;;;;8.20;7.40;;;;;;;;5205890;28;8917;-73
2022/10/30 01:29:28;;;;;;;;;8.20;8.20;;;;;;;;5171591;28;8827;-73
2022/10/30 01:32:12;;;;;;;;;10.00;9.40;;;;;;;;5167072;28;8760;-73
2022/10/30 01:34:51;;;;;;;;;6.60;6.60;;;;;;;;5167398;28;8768;-73
2022/10/30 01:37:31;;;;;;;;;8.40;8.20;;;;;;;;5167075;28;9471;-75
2022/10/30 01:40:10;;;;;;;;;6.60;6.60;;;;;;;;5150977;28;8807;-74
2022/10/30 01:42:59;;;;;;;;;5.20;5.20;;;;;;;;5181669;28;8821;-74
2022/10/30 01:45:44;;;;;;;;;10.00;10.00;;;;;;;;5224109;28;8779;-75
2022/10/30 01:48:18;;;;;;;;;8.80;7.40;;;;;;;;5216007;28;8785;-75
2022/10/30 01:51:09;;;;;;;;;11.20;11.00;;;;;;;;5171437;28;8812;-76
2022/10/30 01:53:48;;;;;;;;;9.40;7.00;;;;;;;;5170702;28;8761;-75
2022/10/30 01:56:55;;;;;;;;;5.60;5.60;;;;;;;;5203281;28;8786;-73
2022/10/30 01:59:41;;;;;;;;;4.20;4.20;;;;;;;;5186570;28;9602;-73
2022/10/30 02:02:13;;;;;;;;;3.00;2.60;;;;;;;;5236078;27;8783;-73
2022/10/30 02:04:44;;;;;;;;;1.20;1.20;;;;;;;;5205377;28;8878;-73
2022/10/30 02:07:16;;;;;;;;;4.20;4.20;;;;;;;;5206338;28;8809;-73
2022/10/30 02:09:53;;;;;;;;;9.60;9.60;;;;;;;;5183204;28;8881;-73
2022/10/30 02:12:25;;;;;;;;;7.20;7.00;;;;;;;;5183336;28;8796;-72
2022/10/30 02:15:15;;;;;;;;;1.60;1.00;;;;;;;;5184245;28;9474;-71
2022/10/30 02:17:46;;;;;;;;;3.00;3.00;;;;;;;;5166226;28;9559;-71
2022/10/30 02:20:19;;;;;;;;;2.80;2.80;;;;;;;;5182480;28;8764;-71
2022/10/30 02:22:51;;;;;;;;;2.80;2.80;;;;;;;;5168808;28;8846;-72
2022/10/30 02:25:22;;;;;;;;;0.00;0.00;;;;;;;;5182224;28;8946;-71
2022/10/30 02:27:53;;;;;;;;;2.00;2.00;;;;;;;;5194104;28;8871;-75
2022/10/30 02:30:25;;;;;;;;;8.20;8.20;;;;;;;;5206622;28;8766;-75
2022/10/30 02:32:57;;;;;;;;;8.00;8.00;;;;;;;;5206780;28;8759;-75
2022/10/30 02:35:29;;;;;;;;;3.00;3.00;;;;;;;;5206486;28;8791;-75
2022/10/30 02:38:01;;;;;;;;;1.00;1.00;;;;;;;;5223192;28;8833;-73
2022/10/30 02:40:51;;;;;;;;;3.40;3.40;;;;;;;;5217642;28;8793;-75
2022/10/30 02:43:40;;;;;;;;;1.00;1.00;;;;;;;;5202566;28;9515;-73
2022/10/30 02:46:12;;;;;;;;;2.20;2.00;;;;;;;;5169806;28;8789;-74
2022/10/30 02:48:43;;;;;;;;;4.60;4.60;;;;;;;;5199243;28;8813;-74
2022/10/30 02:51:15;;;;;;;;;3.00;3.00;;;;;;;;5190046;28;8894;-73
2022/10/30 02:53:47;;;;;;;;;8.80;8.80;;;;;;;;5206132;28;8779;-73
2022/10/30 02:56:18;;;;;;;;;7.00;7.00;;;;;;;;5222800;28;8790;-73
2022/10/30 02:58:50;;;;;;;;;4.60;4.60;;;;;;;;5206417;28;8814;-75
2022/10/30 03:01:39;;;;;;;;;5.80;5.40;;;;;;;;5222966;28;8767;-74
2022/10/30 03:04:11;;;;;;;;;5.80;5.80;;;;;;;;5204344;28;8794;-74
2022/10/30 03:06:42;;;;;;;;;5.00;5.00;;;;;;;;5169331;28;8777;-74
2022/10/30 03:09:13;;;;;;;;;0.00;0.00;;;;;;;;5203580;28;9603;-74
2022/10/30 03:11:44;;;;;;;;;2.80;2.80;;;;;;;;5222941;27;8762;-75
2022/10/30 03:14:15;;;;;;;;;5.00;5.00;;;;;;;;5205795;28;9584;-75
2022/10/30 03:16:47;;;;;;;;;4.60;4.60;;;;;;;;5189241;28;8791;-75
2022/10/30 03:19:20;;;;;;;;;7.60;6.40;;;;;;;;5204881;28;8822;-75
2022/10/30 03:21:52;;;;;;;;;4.00;3.80;;;;;;;;5173081;28;8792;-74
2022/10/30 03:24:42;;;;;;;;;5.40;5.40;;;;;;;;5182577;28;8796;-72
2022/10/30 03:27:13;;;;;;;;;11.00;10.20;;;;;;;;5187529;28;8947;-72
2022/10/30 03:29:44;;;;;;;;;23.60;22.60;;;;;;;;5205626;28;8767;-72
2022/10/30 03:32:35;;;;;;;;;7.40;7.40;;;;;;;;5222601;28;8794;-73
2022/10/30 03:35:06;;;;;;;;;7.20;7.20;;;;;;;;5222361;28;8774;-72
2022/10/30 03:37:37;;;;;;;;;4.20;4.20;;;;;;;;5189102;28;9541;-72
2022/10/30 03:40:08;;;;;;;;;2.40;2.40;;;;;;;;5205571;28;8771;-74
2022/10/30 03:42:40;;;;;;;;;0.00;0.00;;;;;;;;5192910;28;8804;-74
2022/10/30 03:45:30;;;;;;;;;2.00;2.00;;;;;;;;5167346;28;8806;-75
2022/10/30 03:48:04;;;;;;;;;5.00;4.80;;;;;;;;5179201;28;8791;-72
2022/10/30 03:50:36;;;;;;;;;2.00;2.00;;;;;;;;5205184;28;8790;-72
2022/10/30 03:53:07;;;;;;;;;1.00;1.00;;;;;;;;5205492;28;9545;-72
2022/10/30 03:55:39;;;;;;;;;1.80;1.80;;;;;;;;5221896;28;8790;-72
2022/10/30 03:58:10;;;;;;;;;2.00;2.00;;;;;;;;5205052;28;8821;-71
2022/10/30 04:00:42;;;;;;;;;1.00;1.00;;;;;;;;5188841;28;8941;-71
2022/10/30 04:03:32;;;;;;;;;1.00;1.00;;;;;;;;5207436;28;8957;-71
2022/10/30 04:06:05;;;;;;;;;1.40;1.40;;;;;;;;5203388;28;8787;-70
2022/10/30 04:08:37;;;;;;;;;2.00;2.00;;;;;;;;5204811;27;8825;-70
2022/10/30 04:11:10;;;;;;;;;2.80;2.80;;;;;;;;5202034;28;9483;-71
2022/10/30 04:13:41;;;;;;;;;3.40;3.40;;;;;;;;5168542;28;8832;-70
2022/10/30 04:16:13;;;;;;;;;7.00;6.00;;;;;;;;5184599;28;8773;-70
2022/10/30 04:18:45;;;;;;;;;6.00;6.00;;;;;;;;5180911;28;8892;-71
2022/10/30 04:21:16;;;;;;;;;0.40;0.40;;;;;;;;5166844;28;8777;-71
2022/10/30 04:23:48;;;;;;;;;3.40;3.40;;;;;;;;5204627;28;8795;-70
2022/10/30 04:26:19;;;;;;;;;3.80;3.80;;;;;;;;5204814;28;8778;-70
2022/10/30 04:28:50;;;;;;;;;2.00;2.00;;;;;;;;5186437;28;9576;-71
2022/10/30 04:31:21;;;;;;;;;2.40;2.40;;;;;;;;5198082;28;8795;-74
2022/10/30 04:33:54;;;;;;;;;3.40;3.40;;;;;;;;5188563;28;9554;-74
2022/10/30 04:36:31;;;;;;;;;6.00;6.00;;;;;;;;5205057;28;8763;-76
2022/10/30 04:39:03;;;;;;;;;2.00;2.00;;;;;;;;5201726;28;8832;-70
2022/10/30 04:41:34;;;;;;;;;7.60;5.80;;;;;;;;5198745;28;8874;-70
2022/10/30 04:44:12;;;;;;;;;7.00;6.00;;;;;;;;5163796;28;8839;-70
2022/10/30 04:46:44;;;;;;;;;3.80;3.80;;;;;;;;5164198;28;8791;-69
2022/10/30 04:49:15;;;;;;;;;18.20;18.20;;;;;;;;5179890;28;8800;-71
2022/10/30 04:51:46;;;;;;;;;24.80;24.60;;;;;;;;5197097;28;8842;-72
2022/10/30 04:54:19;;;;;;;;;46.00;40.40;;;;;;;;5198980;28;8797;-71
2022/10/30 04:56:51;;;;;;;;;9.20;9.20;;;;;;;;5183946;28;8912;-70
2022/10/30 04:59:22;;;;;;;;;2.00;2.00;;;;;;;;5183566;28;8901;-70
2022/10/30 05:01:56;;;;;;;;;7.00;5.80;;;;;;;;5183997;28;9647;-70
2022/10/30 05:04:27;;;;;;;;;6.20;5.80;;;;;;;;5181742;28;8796;-72
2022/10/30 05:06:58;;;;;;;;;2.80;2.80;;;;;;;;5164669;28;8770;-72
2022/10/30 05:09:30;;;;;;;;;7.60;7.60;;;;;;;;5160908;28;8788;-70
2022/10/30 05:12:01;;;;;;;;;7.60;7.60;;;;;;;;5163924;28;8773;-72
2022/10/30 05:14:51;;;;;;;;;5.00;5.00;;;;;;;;5186916;28;9010;-71
2022/10/30 05:17:22;;;;;;;;;2.40;2.40;;;;;;;;5199206;28;8913;-70
2022/10/30 05:19:55;;;;;;;;;1.00;1.00;;;;;;;;5165597;28;9537;-71
2022/10/30 05:22:45;;;;;;;;;2.40;2.40;;;;;;;;5182151;28;8885;-71
2022/10/30 05:25:16;;;;;;;;;1.60;1.60;;;;;;;;5180891;28;9273;-71
2022/10/30 05:27:47;;;;;;;;;0.00;0.00;;;;;;;;5175992;28;8814;-71
2022/10/30 05:30:19;;;;;;;;;4.40;4.40;;;;;;;;5179463;28;8806;-71
2022/10/30 05:33:10;;;;;;;;;6.40;6.00;;;;;;;;5194176;28;8844;-70
2022/10/30 05:35:41;;;;;;;;;5.40;5.40;;;;;;;;5196819;28;8801;-70
2022/10/30 05:38:12;;;;;;;;;2.00;2.00;;;;;;;;5164076;28;8855;-71
2022/10/30 05:40:45;;;;;;;;;3.40;3.40;;;;;;;;5179591;28;8782;-70
2022/10/30 05:43:16;;;;;;;;;1.00;1.00;;;;;;;;5181044;28;8768;-71
2022/10/30 05:45:49;;;;;;;;;2.00;2.00;;;;;;;;5201452;28;9006;-69
2022/10/30 05:48:38;;;;;;;;;4.60;4.20;;;;;;;;5205241;28;8859;-69
2022/10/30 05:51:10;;;;;;;;;3.00;3.00;;;;;;;;5170005;28;8827;-70
2022/10/30 05:53:47;;;;;;;;;2.00;2.00;;;;;;;;5170766;28;8789;-71
2022/10/30 05:56:19;;;;;;;;;31.60;30.00;;;;;;;;5170132;28;8832;-71
2022/10/30 05:58:50;;;;;;;;;4.60;4.60;;;;;;;;5202874;28;9515;-70
2022/10/30 06:01:21;;;;;;;;;6.00;6.00;;;;;;;;5186271;28;8789;-71
2022/10/30 06:03:56;;;;;;;;;1.40;1.40;;;;;;;;5183250;28;8787;-70
2022/10/30 06:06:27;;;;;;;;;2.60;2.60;;;;;;;;5203740;28;8770;-70
2022/10/30 06:08:59;;;;;;;;;1.80;1.80;;;;;;;;5209711;28;9501;-69
2022/10/30 06:11:53;;;;;;;;;5.20;5.20;;;;;;;;5210399;27;8801;-70
2022/10/30 06:14:42;;;;;;;;;5.00;5.00;;;;;;;;5207945;28;8783;-71
2022/10/30 06:17:14;;;;;;;;;10.00;10.00;;;;;;;;5222918;28;8845;-70
2022/10/30 06:20:08;;;;;;;;;12.80;12.00;;;;;;;;5209301;27;8805;-73
2022/10/30 06:23:03;;;;;;;;;5.60;5.60;;;;;;;;5193493;28;8801;-73
2022/10/30 06:25:53;;;;;;;;;10.80;10.80;;;;;;;;5202480;28;8936;-72
2022/10/30 06:28:26;;;;;;;;;6.00;6.00;;;;;;;;5174417;28;9589;-72
2022/10/30 06:30:58;;;;;;;;;6.60;6.60;;;;;;;;5206562;28;8906;-71
2022/10/30 06:33:29;;;;;;;;;7.80;7.80;;;;;;;;5206558;28;8786;-71
2022/10/30 06:36:00;;;;;;;;;2.00;2.00;;;;;;;;5206486;28;8787;-71
2022/10/30 06:38:32;;;;;;;;;71.40;53.20;;;;;;;;5206108;28;8857;-72
2022/10/30 06:41:04;;;;;;;;;2.60;2.60;;;;;;;;5220414;27;8905;-71
2022/10/30 06:43:53;;;;;;;;;1.20;1.20;;;;;;;;5186881;28;8780;-72
2022/10/30 06:46:43;;;;;;;;;1.40;1.40;;;;;;;;5168419;28;9505;-71
2022/10/30 06:49:14;;;;;;;;;2.00;2.00;;;;;;;;5164763;28;8818;-71
2022/10/30 06:52:04;;;;;;;;;0.00;0.00;;;;;;;;5181723;28;8780;-71
2022/10/30 06:54:35;;;;;;;;;3.80;3.80;;;;;;;;5181646;28;8780;-72
2022/10/30 06:57:29;;;;;;;;;0.40;0.40;;;;;;;;5181331;28;8819;-72
2022/10/30 07:00:19;;;;;;;;;1.00;1.00;;;;;;;;5182086;28;8760;-71
2022/10/30 07:03:09;;;;;;;;;2.00;2.00;;;;;;;;5182058;28;8787;-71
2022/10/30 07:05:40;;;;;;;;;1.60;1.60;;;;;;;;5181464;28;8796;-70
2022/10/30 07:08:11;;;;;;;;;49.80;35.80;;;;;;;;5180716;28;8788;-71
2022/10/30 07:10:42;;;;;;;;;1.00;1.00;;;;;;;;5165545;28;8804;-71
2022/10/30 07:13:48;;;;;;;;;5.40;5.40;;;;;;;;5139874;28;8791;-72
2022/10/30 07:16:48;;;;;;;;;7.40;7.40;;;;;;;;5253857;28;8804;-71
2022/10/30 07:19:20;;;;;;;;;5.20;5.20;;;;;;;;5165361;28;8815;-72
2022/10/30 07:21:51;;;;;;;;;6.20;6.20;;;;;;;;5165172;28;8799;-71
2022/10/30 07:24:22;;;;;;;;;2.80;2.80;;;;;;;;5164797;28;8816;-71
2022/10/30 07:27:08;;;;;;;;;2.40;2.40;;;;;;;;5181025;28;8882;-71
2022/10/30 07:29:50;;;;;;;;;2.80;2.80;;;;;;;;5180942;28;8936;-69
2022/10/30 07:32:44;;;;;;;;;6.40;6.40;;;;;;;;5179540;28;9545;-71
2022/10/30 07:35:35;;;;;;;;;1.00;1.00;;;;;;;;5167939;28;8788;-72
2022/10/30 07:38:24;;;;;;;;;7.60;6.80;;;;;;;;5187855;28;9579;-72
2022/10/30 07:41:00;;;;;;;;;2.80;2.80;;;;;;;;5185677;28;8820;-72
2022/10/30 07:43:47;;;;;;;;;2.00;2.00;;;;;;;;5201448;28;8769;-71
2022/10/30 07:46:47;;;;;;;;;2.00;2.00;;;;;;;;5193850;28;8793;-72
2022/10/30 07:49:45;;;;;;;;;4.00;4.00;;;;;;;;5159681;28;9534;-72
2022/10/30 07:52:17;;;;;;;;;0.40;0.40;;;;;;;;5181030;28;8796;-72
2022/10/30 07:54:51;;;;;;;;;3.00;3.00;;;;;;;;5149038;28;8788;-71
2022/10/30 07:57:41;;;;;;;;;10.80;10.20;;;;;;;;5164346;28;8812;-72
2022/10/30 08:00:31;;;;;;;;;4.20;4.20;;;;;;;;5181184;28;8806;-72
2022/10/30 08:03:22;;;;;;;;;0.80;0.40;;;;;;;;5174544;28;8834;-71
2022/10/30 08:06:01;;;;;;;;;1.00;1.00;;;;;;;;5169042;28;8802;-71
2022/10/30 08:08:38;;;;;;;;;1.00;1.00;;;;;;;;5200667;28;8817;-72
2022/10/30 08:11:32;;;;;;;;;7.60;7.60;;;;;;;;5184688;28;8814;-73
2022/10/30 08:14:03;;;;;;;;;3.00;3.00;;;;;;;;5162620;28;8826;-73
2022/10/30 08:16:34;;;;;;;;;50.00;44.00;;;;;;;;5173950;28;9543;-72
2022/10/30 08:19:06;;;;;;;;;6.80;6.80;;;;;;;;5192867;28;8825;-72
2022/10/30 08:21:55;;;;;;;;;3.00;3.00;;;;;;;;5179624;28;8780;-71
2022/10/30 08:24:26;;;;;;;;;2.00;2.00;;;;;;;;5146097;28;8788;-71
2022/10/30 08:27:00;;;;;;;;;3.00;3.00;;;;;;;;5181876;28;9611;-72
2022/10/30 08:29:33;;;;;;;;;6.00;6.00;;;;;;;;5198807;28;8798;-72
2022/10/30 08:32:23;;;;;;;;;3.00;3.00;;;;;;;;5185059;28;8810;-72
2022/10/30 08:35:29;;;;;;;;;6.80;6.80;;;;;;;;5225230;28;8806;-72
2022/10/30 08:38:03;;;;;;;;;5.60;5.60;;;;;;;;5172920;28;8829;-71
2022/10/30 08:40:34;;;;;;;;;2.80;2.80;;;;;;;;5183081;28;8769;-73
2022/10/30 08:43:08;;;;;;;;;12.00;12.00;;;;;;;;5199139;28;9432;-73
2022/10/30 08:45:39;;;;;;;;;14.80;14.80;;;;;;;;5182550;28;9520;-73
2022/10/30 08:48:17;;;;;;;;;6.20;6.00;;;;;;;;5166493;28;8821;-73
2022/10/30 08:51:08;;;;;;;;;5.20;4.40;;;;;;;;5199640;28;9511;-73
2022/10/30 08:53:47;;;;;;;;;1.40;1.40;;;;;;;;5199702;28;8803;-73
2022/10/30 08:56:19;;;;;;;;;2.80;2.40;;;;;;;;5199515;28;8785;-73
2022/10/30 08:59:09;;;;;;;;;2.00;2.00;;;;;;;;5183581;28;9526;-72
2022/10/30 09:01:40;;;;;;;;;2.00;2.00;;;;;;;;5183655;28;8780;-72
2022/10/30 09:04:23;;;;;;;;;0.00;0.00;;;;;;;;5200124;28;8813;-72
2022/10/30 09:07:12;;;;;;;;;57.20;44.00;;;;;;;;5186868;28;8800;-73
2022/10/30 09:10:02;;;;;;;;;8.60;8.60;;;;;;;;5199764;28;9496;-73
2022/10/30 09:12:36;;;;;;;;;7.00;6.80;;;;;;;;5163950;28;9562;-73
2022/10/30 09:15:07;;;;;;;;;2.25;2.25;;;;;;;;5147198;27;8776;-74
2022/10/30 09:18:00;;;;;;;;;10.80;10.20;;;;;;;;5188817;28;11433;-71
2022/10/30 09:20:31;;;;;;;;;7.00;7.00;;;;;;;;5203908;28;8838;-73
2022/10/30 09:23:03;;;;;;;;;4.20;3.40;;;;;;;;5170686;28;8825;-73
2022/10/30 09:25:34;;;;;;;;;3.00;3.00;;;;;;;;5186536;28;8793;-72
2022/10/30 09:28:16;;;;;;;;;6.00;6.00;;;;;;;;5187271;28;8857;-72
2022/10/30 09:31:13;;;;;;;;;6.00;6.00;;;;;;;;5190451;28;9637;-74
2022/10/30 09:33:44;;;;;;;;;6.20;6.20;;;;;;;;5186812;28;8786;-72
2022/10/30 09:36:34;;;;;;;;;6.00;6.00;;;;;;;;5203296;28;8832;-72
2022/10/30 09:39:05;;;;;;;;;5.40;5.00;;;;;;;;5203009;28;8817;-72
2022/10/30 09:41:45;;;;;;;;;1.00;1.00;;;;;;;;5170692;28;8855;-72
2022/10/30 09:44:52;;;;;;;;;4.40;4.40;;;;;;;;5204577;28;8781;-73
2022/10/30 09:47:26;;;;;;;;;4.20;4.20;;;;;;;;5187422;28;8868;-73
2022/10/30 09:50:10;;;;;;;;;4.40;4.40;;;;;;;;5186845;28;8789;-73
2022/10/30 09:52:56;;;;;;;;;0.20;0.20;;;;;;;;5170104;28;8857;-73
2022/10/30 09:55:50;;;;;;;;;2.00;2.00;;;;;;;;5189202;28;8865;-72
2022/10/30 09:58:31;;;;;;;;;3.20;3.20;;;;;;;;5186694;28;9558;-72
2022/10/30 10:01:20;;;;;;;;;2.20;2.20;;;;;;;;5196555;28;8915;-75
2022/10/30 10:04:12;;;;;;;;;3.00;3.00;;;;;;;;5166089;28;8780;-74
2022/10/30 10:06:47;;;;;;;;;3.40;3.40;;;;;;;;5181055;28;8833;-73
2022/10/30 10:09:42;;;;;;;;;6.00;6.00;;;;;;;;5180081;28;8788;-73
2022/10/30 10:12:53;;;;;;;;;6.00;6.00;;;;;;;;5206850;28;8996;-72
2022/10/30 10:15:38;;;;;;;;;3.80;3.80;;;;;;;;5201957;28;8802;-72
2022/10/30 10:18:34;;;;;;;;;3.00;3.00;;;;;;;;5188955;28;8841;-72
2022/10/30 10:21:25;;;;;;;;;3.00;3.00;;;;;;;;5202682;28;8813;-72
2022/10/30 10:24:01;;;;;;;;;8.00;8.00;;;;;;;;5185771;28;8865;-73
2022/10/30 10:26:55;;;;;;;;;4.80;4.80;;;;;;;;5201922;28;9512;-72
2022/10/30 10:29:29;;;;;;;;;9.20;9.20;;;;;;;;5202669;28;9602;-72
2022/10/30 10:32:00;;;;;;;;;6.00;6.00;;;;;;;;5185972;28;8781;-72
2022/10/30 10:34:43;;;;;;;;;9.80;9.80;;;;;;;;5201964;28;8862;-72
2022/10/30 10:37:29;;;;;;;;;8.20;8.20;;;;;;;;5185930;28;8789;-72
2022/10/30 10:40:33;;;;;;;;;3.00;3.00;;;;;;;;5203549;28;8826;-71
2022/10/30 10:43:07;;;;;;;;;3.00;3.00;;;;;;;;5186450;28;8773;-72
2022/10/30 10:46:01;;;;;;;;;5.00;5.00;;;;;;;;5182174;28;8801;-72
2022/10/30 10:48:39;;;;;;;;;13.00;13.00;;;;;;;;5170339;28;8791;-72
2022/10/30 10:51:13;;;;;;;;;6.60;6.60;;;;;;;;5181296;28;8788;-72
2022/10/30 10:53:56;;;;;;;;;0.00;0.00;;;;;;;;5165499;28;8788;-72
2022/10/30 10:56:31;;;;;;;;;0.80;0.80;;;;;;;;5165555;28;8907;-72
2022/10/30 10:59:04;;;;;;;;;1.00;1.00;;;;;;;;5165362;28;8812;-73
2022/10/30 11:01:39;;;;;;;;;2.20;2.20;;;;;;;;5165173;28;8804;-72
2022/10/30 11:04:15;;;;;;;;;8.40;7.80;;;;;;;;5182911;28;8922;-72
2022/10/30 11:06:49;;;;;;;;;6.80;6.80;;;;;;;;5165432;28;8919;-72
2022/10/30 11:09:21;;;;;;;;;2.00;2.00;;;;;;;;5197774;28;8857;-72
2022/10/30 11:11:53;;;;;;;;;1.40;1.40;;;;;;;;5181320;28;8809;-72
2022/10/30 11:14:26;;;;;;;;;9.60;9.60;;;;;;;;5201970;28;8839;-72
2022/10/30 11:17:11;;;;;;;;;4.20;4.20;;;;;;;;5180984;28;8811;-72
2022/10/30 11:19:42;;;;;;;;;2.60;2.60;;;;;;;;5181284;28;8804;-72
2022/10/30 11:22:19;;;;;;;;;2.00;1.50;;;;;;;;5164709;28;8816;-71
2022/10/30 11:24:50;;;;;;;;;2.20;2.20;;;;;;;;5164902;28;9715;-72
2022/10/30 11:27:27;;;;;;;;;28.50;23.00;;;;;;;;5181757;28;8788;-72
2022/10/30 11:29:59;;;;;;;;;1.80;1.80;;;;;;;;5164850;28;11637;-72
2022/10/30 11:32:31;;;;;;;;;5.20;5.20;;;;;;;;5180825;28;8780;-72
2022/10/30 11:35:11;;;;;;;;;1.00;1.00;;;;;;;;5164887;28;8784;-73
2022/10/30 11:38:18;;;;;;;;;2.00;2.00;;;;;;;;5181381;28;8880;-74
2022/10/30 11:40:51;;;;;;;;;1.60;1.60;;;;;;;;5172350;28;8824;-73
2022/10/30 11:43:23;;;;;;;;;6.80;6.80;;;;;;;;5180765;28;8776;-73
2022/10/30 11:45:54;;;;;;;;;9.00;8.40;;;;;;;;5197256;28;8835;-73
2022/10/30 11:48:29;;;;;;;;;13.00;11.80;;;;;;;;5164498;28;8803;-73
2022/10/30 11:51:01;;;;;;;;;22.00;19.80;;;;;;;;5180774;28;8792;-73
2022/10/30 11:53:38;;;;;;;;;17.60;17.40;;;;;;;;5148361;28;8768;-73
2022/10/30 11:56:14;;;;;;;;;34.40;31.60;;;;;;;;5180903;28;8772;-73
2022/10/30 11:58:47;;;;;;;;;13.80;13.60;;;;;;;;5148168;28;8812;-72
2022/10/30 12:01:23;;;;;;;;;92.80;74.60;;;;;;;;5173409;28;8796;-73
2022/10/30 12:03:54;;;;;;;;;30.80;26.20;;;;;;;;5184259;28;8805;-73
2022/10/30 12:06:27;;;;;;;;;16.20;13.80;;;;;;;;5201469;28;8838;-73
2022/10/30 12:09:08;;;;;;;;;10.60;10.40;;;;;;;;5200728;28;8797;-72
2022/10/30 12:11:42;;;;;;;;;11.00;11.00;;;;;;;;5180600;28;8788;-74
2022/10/30 12:14:18;;;;;;;;;7.80;7.80;;;;;;;;5180299;28;8779;-72
2022/10/30 12:16:51;;;;;;;;;11.00;10.80;;;;;;;;5179565;28;8816;-71
2022/10/30 12:19:23;;;;;;;;;16.60;16.40;;;;;;;;5184024;28;9539;-72
2022/10/30 12:21:57;;;;;;;;;8.20;7.00;;;;;;;;5184196;28;8813;-73
2022/10/30 12:24:28;;;;;;;;;8.00;8.00;;;;;;;;5167792;28;8790;-73
2022/10/30 12:27:03;;;;;;;;;12.25;12.25;;;;;;;;5201289;28;8793;-72
2022/10/30 12:29:53;;;;;;;;;12.00;9.80;;;;;;;;5202067;28;8807;-72
2022/10/30 12:32:26;;;;;;;;;2.20;2.20;;;;;;;;5202039;28;8821;-73
2022/10/30 12:35:02;;;;;;;;;1.60;1.60;;;;;;;;5201524;28;8804;-72
2022/10/30 12:37:37;;;;;;;;;15.80;15.60;;;;;;;;5167911;28;8789;-73
2022/10/30 12:40:32;;;;;;;;;18.20;17.40;;;;;;;;5200313;28;8874;-72
2022/10/30 12:43:29;;;;;;;;;12.60;11.60;;;;;;;;5184395;28;8831;-72
2022/10/30 12:46:11;;;;;;;;;31.00;27.20;;;;;;;;5200851;28;8781;-71
2022/10/30 12:48:48;;;;;;;;;22.60;21.80;;;;;;;;5200606;28;8813;-71
2022/10/30 12:51:18;;;;;;;;;29.20;29.20;;;;;;;;5185295;28;8809;-71
2022/10/30 12:53:57;;;;;;;;;18.75;18.75;;;;;;;;5169914;28;8788;-71
2022/10/30 12:56:32;;;;;;;;;15.80;15.40;;;;;;;;5191401;28;8787;-72
2022/10/30 12:59:30;;;;;;;;;20.40;19.20;;;;;;;;5210309;28;8841;-70
2022/10/30 13:02:36;;;;;;;;;29.00;28.20;;;;;;;;5194226;28;8930;-72
2022/10/30 13:05:39;;;;;;;;;18.40;16.60;;;;;;;;5109466;28;8834;-74
2022/10/30 13:08:24;;;;;;;;;24.60;22.20;;;;;;;;5148674;28;8837;-70
2022/10/30 13:11:13;;;;;;;;;16.60;16.60;;;;;;;;5212739;28;8799;-72
2022/10/30 13:13:47;;;;;;;;;7.80;7.80;;;;;;;;5191704;28;8792;-73
2022/10/30 13:16:22;;;;;;;;;13.00;13.00;;;;;;;;5173930;28;9009;-73
2022/10/30 13:19:02;;;;;;;;;12.20;12.00;;;;;;;;5166736;28;8854;-74
2022/10/30 13:21:33;;;;;;;;;14.40;14.40;;;;;;;;5183356;28;8788;-73
2022/10/30 13:24:12;;;;;;;;;16.50;15.50;;;;;;;;5166759;28;8859;-73
2022/10/30 13:26:47;;;;;;;;;18.60;18.20;;;;;;;;5219497;28;8826;-73
2022/10/30 13:29:21;;;;;;;;;16.40;16.40;;;;;;;;5190707;28;8795;-74
2022/10/30 13:31:55;;;;;;;;;16.20;16.00;;;;;;;;5184802;28;9502;-73
2022/10/30 13:34:33;;;;;;;;;19.20;18.00;;;;;;;;5179736;28;8824;-71
2022/10/30 13:37:07;;;;;;;;;7.20;7.20;;;;;;;;5187223;28;9586;-73
2022/10/30 13:39:47;;;;;;;;;33.40;29.80;;;;;;;;5170495;28;8846;-72
2022/10/30 13:42:24;;;;;;;;;37.80;32.80;;;;;;;;5186875;28;8789;-73
2022/10/30 13:45:25;;;;;;;;;23.20;20.40;;;;;;;;5203071;28;8838;-72
2022/10/30 13:48:05;;;;;;;;;17.00;17.00;;;;;;;;5170232;28;8773;-73
2022/10/30 13:50:39;;;;;;;;;26.60;26.20;;;;;;;;5170632;28;8799;-73
2022/10/30 13:53:13;;;;;;;;;29.20;24.00;;;;;;;;5170636;28;8800;-73
2022/10/30 13:55:45;;;;;;;;;24.20;23.20;;;;;;;;5206871;28;8806;-72
2022/10/30 13:58:38;;;;;;;;;19.60;19.40;;;;;;;;5192716;28;8860;-72
2022/10/30 14:01:28;;;;;;;;;22.20;21.80;;;;;;;;5166215;28;8788;-72
2022/10/30 14:04:29;;;;;;;;;13.60;13.60;;;;;;;;5171958;28;8780;-73
2022/10/30 14:07:09;;;;;;;;;8.60;8.20;;;;;;;;5218389;28;8830;-73
2022/10/30 14:09:55;;;;;;;;;41.00;36.80;;;;;;;;5188864;28;8779;-72
2022/10/30 14:12:41;;;;;;;;;27.80;27.80;;;;;;;;5188557;28;8787;-72
2022/10/30 14:15:25;;;;;;;;;38.20;36.60;;;;;;;;5202743;28;9484;-72
2022/10/30 14:18:11;;;;;;;;;24.60;24.20;;;;;;;;5204016;28;8801;-71
2022/10/30 14:20:42;;;;;;;;;17.40;17.40;;;;;;;;5169935;28;8829;-72
2022/10/30 14:23:22;;;;;;;;;13.50;13.50;;;;;;;;5202662;28;8777;-73
2022/10/30 14:26:02;;;;;;;;;11.40;10.60;;;;;;;;5186043;28;8773;-71
2022/10/30 14:28:35;;;;;;;;;15.20;15.20;;;;;;;;5170262;28;8789;-72
2022/10/30 14:31:10;;;;;;;;;23.00;22.00;;;;;;;;5177831;28;8885;-75
2022/10/30 14:33:59;;;;;;;;;33.60;33.00;;;;;;;;5183820;28;8876;-76
2022/10/30 14:36:33;;;;;;;;;21.80;21.40;;;;;;;;5166791;28;8873;-76
2022/10/30 14:39:26;;;;;;;;;32.20;32.00;;;;;;;;5198962;28;8911;-76
2022/10/30 14:42:03;;;;;;;;;41.00;38.20;;;;;;;;5201758;28;8813;-78
2022/10/30 14:44:53;;;;;;;;;35.80;34.60;;;;;;;;5167237;28;8781;-77
2022/10/30 14:47:27;;;;;;;;;31.00;30.60;;;;;;;;5198196;28;8833;-77
2022/10/30 14:49:58;;;;;;;;;25.60;25.60;;;;;;;;5168308;28;8943;-77
2022/10/30 14:52:47;;;;;;;;;20.50;20.00;;;;;;;;5200272;28;8939;-76
2022/10/30 14:55:18;;;;;;;;;14.60;14.40;;;;;;;;5183792;28;8793;-76
2022/10/30 14:58:12;;;;;;;;;28.50;26.75;;;;;;;;5202928;28;8797;-77
2022/10/30 15:00:43;;;;;;;;;17.40;17.40;;;;;;;;5201392;28;8801;-77
2022/10/30 15:03:20;;;;;;;;;29.40;27.40;;;;;;;;5181243;28;8840;-71
2022/10/30 15:06:03;;;;;;;;;29.20;27.60;;;;;;;;5213801;28;8786;-71
2022/10/30 15:08:41;;;;;;;;;21.60;21.60;;;;;;;;5189573;28;8795;-72
2022/10/30 15:11:46;;;;;;;;;26.20;26.20;;;;;;;;5187499;28;8826;-72
2022/10/30 15:14:16;;;;;;;;;25.40;25.40;;;;;;;;5182978;28;8830;-72
2022/10/30 15:16:49;;;;;;;;;10.00;8.00;;;;;;;;5197537;28;8765;-72
2022/10/30 15:19:21;;;;;;;;;26.60;26.00;;;;;;;;5185219;28;8834;-72
2022/10/30 15:21:54;;;;;;;;;30.00;27.20;;;;;;;;5199985;28;8824;-72
2022/10/30 15:24:27;;;;;;;;;15.60;15.60;;;;;;;;5187661;28;8804;-71
2022/10/30 15:26:59;;;;;;;;;25.60;25.00;;;;;;;;5181468;28;8818;-71
2022/10/30 15:29:32;;;;;;;;;49.00;43.60;;;;;;;;5174322;28;8943;-71
2022/10/30 15:32:30;;;;;;;;;24.60;23.40;;;;;;;;5179098;28;8791;-71
2022/10/30 15:35:21;;;;;;;;;7.20;7.20;;;;;;;;5180358;28;9712;-71
2022/10/30 15:38:10;;;;;;;;;17.20;17.20;;;;;;;;5178992;28;8830;-70
2022/10/30 15:40:45;;;;;;;;;20.00;19.80;;;;;;;;5150645;28;8819;-72
2022/10/30 15:43:34;;;;;;;;;11.60;11.60;;;;;;;;5202742;28;8814;-70
2022/10/30 15:46:10;;;;;;;;;72.00;57.60;;;;;;;;5184882;28;9633;-69
2022/10/30 15:48:44;;;;;;;;;18.80;17.60;;;;;;;;5181061;28;8804;-69
2022/10/30 15:51:23;;;;;;;;;72.00;55.20;;;;;;;;5193531;28;8904;-70
2022/10/30 15:54:00;;;;;;;;;25.20;25.20;;;;;;;;5198351;28;9561;-68
2022/10/30 15:56:32;;;;;;;;;12.60;11.60;;;;;;;;5200766;28;9565;-69